createdAt,value
2023-01-25T00:03:32.757Z,1.07
2023-01-25T00:06:19.905Z,0.97
2023-01-25T00:09:06.961Z,0.88
2023-01-25T00:11:56.525Z,0.90
2023-01-25T00:14:43.551Z,0.92
2023-01-25T00:17:30.619Z,0.83
2023-01-25T00:20:17.807Z,0.93
2023-01-25T00:23:04.909Z,1.13
2023-01-25T00:25:58.885Z,1.00
2023-01-25T00:28:53.539Z,0.97
2023-01-25T00:31:49.646Z,0.88
2023-01-25T00:34:50.311Z,1.07
2023-01-25T00:37:38.881Z,0.89
2023-01-25T00:40:26.039Z,0.94
2023-01-25T00:43:14.784Z,0.85
2023-01-25T00:46:02.114Z,0.82
2023-01-25T00:48:52.970Z,0.75
2023-01-25T00:51:40.026Z,0.91
2023-01-25T00:54:27.384Z,1.16
2023-01-25T00:57:14.861Z,1.20
2023-01-25T01:00:01.947Z,0.96
2023-01-25T01:02:49.046Z,0.94
2023-01-25T01:05:36.773Z,0.88
2023-01-25T01:08:23.939Z,0.90
2023-01-25T01:11:12.649Z,1.12
2023-01-25T01:14:00.637Z,0.92
2023-01-25T01:16:47.955Z,0.94
2023-01-25T01:19:35.294Z,0.87
2023-01-25T01:22:22.412Z,0.88
2023-01-25T01:25:10.972Z,0.84
2023-01-25T01:27:58.025Z,0.93
2023-01-25T01:30:45.098Z,1.04
2023-01-25T01:33:33.957Z,0.95
2023-01-25T01:36:25.169Z,0.91
2023-01-25T01:39:12.259Z,0.80
2023-01-25T01:41:59.361Z,0.90
2023-01-25T01:44:50.039Z,0.96
2023-01-25T01:47:46.077Z,0.91
2023-01-25T01:50:33.205Z,1.04
2023-01-25T01:53:24.791Z,0.96
2023-01-25T01:56:17.343Z,0.88
2023-01-25T01:59:06.325Z,0.85
2023-01-25T02:01:54.246Z,0.79
2023-01-25T02:04:44.387Z,0.96
2023-01-25T02:07:35.484Z,1.09
2023-01-25T02:10:25.319Z,1.00
2023-01-25T02:13:12.436Z,0.83
2023-01-25T02:15:59.726Z,0.85
2023-01-25T02:18:47.052Z,0.85
2023-01-25T02:21:41.269Z,0.79
2023-01-25T02:24:32.683Z,0.88
2023-01-25T02:27:20.473Z,0.81
2023-01-25T02:30:09.723Z,0.84
2023-01-25T02:32:56.812Z,0.94
2023-01-25T02:35:48.640Z,0.98
2023-01-25T02:38:39.731Z,0.93
2023-01-25T02:41:41.138Z,0.75
2023-01-25T02:44:34.392Z,0.74
2023-01-25T02:47:21.566Z,0.77
2023-01-25T02:50:09.781Z,0.79
2023-01-25T02:52:56.878Z,0.82
2023-01-25T02:55:43.945Z,0.77
2023-01-25T02:58:31.188Z,0.80
2023-01-25T03:01:18.376Z,0.81
2023-01-25T03:04:12.475Z,0.38
2023-01-25T03:06:59.537Z,0.86
2023-01-25T03:09:46.581Z,0.85
2023-01-25T03:12:33.702Z,0.84
2023-01-25T03:15:20.752Z,0.83
2023-01-25T03:18:07.892Z,0.90
2023-01-25T03:20:55.061Z,0.83
2023-01-25T03:23:43.055Z,0.86
2023-01-25T03:26:30.583Z,0.92
2023-01-25T03:29:17.642Z,0.86
2023-01-25T03:32:05.135Z,0.83
2023-01-25T03:34:52.350Z,0.78
2023-01-25T03:37:39.383Z,0.84
2023-01-25T03:40:26.480Z,0.91
2023-01-25T03:43:13.595Z,0.90
2023-01-25T03:46:01.951Z,0.85
2023-01-25T03:48:49.005Z,0.75
2023-01-25T03:51:36.270Z,0.76
2023-01-25T03:54:23.441Z,0.80
2023-01-25T03:57:10.533Z,0.80
2023-01-25T03:59:57.562Z,1.05
2023-01-25T04:02:44.751Z,1.00
2023-01-25T04:05:31.809Z,0.86
2023-01-25T04:08:19.058Z,0.89
2023-01-25T04:11:10.788Z,0.92
2023-01-25T04:13:57.965Z,0.82
2023-01-25T04:16:45.021Z,0.76
2023-01-25T04:19:32.225Z,0.80
2023-01-25T04:22:19.508Z,0.71
2023-01-25T04:25:08.231Z,0.63
2023-01-25T04:27:55.505Z,0.90
2023-01-25T04:30:42.601Z,1.06
2023-01-25T04:33:30.352Z,1.05
2023-01-25T04:36:17.445Z,0.85
2023-01-25T04:39:04.583Z,0.73
2023-01-25T04:41:51.646Z,0.98
2023-01-25T04:44:38.671Z,1.00
2023-01-25T04:47:25.779Z,0.91
2023-01-25T04:50:12.835Z,0.82
2023-01-25T04:52:59.908Z,0.77
2023-01-25T04:55:47.799Z,0.71
2023-01-25T04:58:34.903Z,0.88
2023-01-25T05:01:22.077Z,0.98
2023-01-25T05:04:09.363Z,0.82
2023-01-25T05:06:56.386Z,0.86
2023-01-25T05:09:43.442Z,0.75
2023-01-25T05:12:30.448Z,0.81
2023-01-25T05:15:17.631Z,0.84
2023-01-25T05:18:05.029Z,0.94
2023-01-25T05:20:56.400Z,0.80
2023-01-25T05:23:43.427Z,0.87
2023-01-25T05:26:49.365Z,0.78
2023-01-25T05:29:39.870Z,0.88
2023-01-25T05:32:26.978Z,0.81
2023-01-25T05:35:14.143Z,0.84
2023-01-25T05:38:01.223Z,0.85
2023-01-25T05:40:48.250Z,0.76
2023-01-25T05:43:35.367Z,0.73
2023-01-25T05:46:22.465Z,0.86
2023-01-25T05:49:10.651Z,1.01
2023-01-25T05:51:57.681Z,0.88
2023-01-25T05:54:44.985Z,0.77
2023-01-25T05:57:32.071Z,0.76
2023-01-25T06:00:19.502Z,0.65
2023-01-25T06:03:06.640Z,0.86
2023-01-25T06:05:58.632Z,0.84
2023-01-25T06:08:45.842Z,0.82
2023-01-25T06:11:32.914Z,0.97
2023-01-25T06:14:20.095Z,0.95
2023-01-25T06:17:07.236Z,0.98
2023-01-25T06:19:54.270Z,0.88
2023-01-25T06:22:41.409Z,0.83
2023-01-25T06:25:28.428Z,0.75
2023-01-25T06:28:15.518Z,0.77
2023-01-25T06:31:06.801Z,0.80
2023-01-25T06:33:54.049Z,0.72
2023-01-25T06:36:41.077Z,0.64
2023-01-25T06:39:29.830Z,0.73
2023-01-25T06:42:16.878Z,0.71
2023-01-25T06:45:04.153Z,0.74
2023-01-25T06:47:52.208Z,0.68
2023-01-25T06:50:39.377Z,0.77
2023-01-25T06:53:28.473Z,0.83
2023-01-25T06:56:21.926Z,0.78
2023-01-25T06:59:09.179Z,0.73
2023-01-25T07:01:56.285Z,0.75
2023-01-25T07:04:43.345Z,0.87
2023-01-25T07:07:30.710Z,0.76
2023-01-25T07:10:17.835Z,0.76
2023-01-25T07:13:04.893Z,0.63
2023-01-25T07:16:06.553Z,0.74
2023-01-25T07:18:54.473Z,0.84
2023-01-25T07:21:41.757Z,0.75
2023-01-25T07:24:29.912Z,0.79
2023-01-25T07:27:17.411Z,0.80
2023-01-25T07:30:04.879Z,0.88
2023-01-25T07:32:51.929Z,0.96
2023-01-25T07:35:39.200Z,0.91
2023-01-25T07:38:26.263Z,0.94
2023-01-25T07:41:13.498Z,0.88
2023-01-25T07:44:00.825Z,0.80
2023-01-25T07:46:55.255Z,0.82
2023-01-25T07:49:42.297Z,0.97
2023-01-25T07:52:29.386Z,0.99
2023-01-25T07:55:16.649Z,0.90
2023-01-25T07:58:03.911Z,0.90
2023-01-25T08:00:50.909Z,0.93
2023-01-25T08:03:38.472Z,1.07
2023-01-25T08:06:35.898Z,1.06
2023-01-25T08:09:23.195Z,1.11
2023-01-25T08:12:10.402Z,1.15
2023-01-25T08:14:57.710Z,1.06
2023-01-25T08:17:44.771Z,1.07
2023-01-25T08:20:31.861Z,1.04
2023-01-25T08:23:20.609Z,1.11
2023-01-25T08:26:09.825Z,1.12
2023-01-25T08:28:57.694Z,1.28
2023-01-25T08:31:45.448Z,1.49
2023-01-25T08:34:33.000Z,1.44
2023-01-25T08:37:20.147Z,1.36
2023-01-25T08:40:08.375Z,1.26
2023-01-25T08:42:55.904Z,1.27
2023-01-25T08:45:42.960Z,1.25
2023-01-25T08:48:30.275Z,1.34
2023-01-25T08:51:17.364Z,1.35
2023-01-25T08:54:08.074Z,1.40
2023-01-25T08:56:55.193Z,1.43
2023-01-25T08:59:42.328Z,1.50
2023-01-25T09:02:29.499Z,1.73
2023-01-25T09:05:16.750Z,1.91
2023-01-25T09:08:07.727Z,1.93
2023-01-25T09:10:55.088Z,1.96
2023-01-25T09:13:45.331Z,2.02
2023-01-25T09:16:32.277Z,2.03
2023-01-25T09:19:19.268Z,1.93
2023-01-25T09:22:06.455Z,1.67
2023-01-25T09:24:54.121Z,1.82
2023-01-25T09:27:41.926Z,1.89
2023-01-25T09:30:44.849Z,1.74
2023-01-25T09:33:35.767Z,1.79
2023-01-25T09:36:22.818Z,1.68
2023-01-25T09:39:12.509Z,1.71
2023-01-25T09:42:22.551Z,1.95
2023-01-25T09:45:13.816Z,1.79
2023-01-25T09:48:20.633Z,1.73
2023-01-25T09:51:13.560Z,1.79
2023-01-25T09:54:04.275Z,1.88
2023-01-25T09:56:52.170Z,1.88
2023-01-25T09:59:41.124Z,1.83
2023-01-25T10:02:38.806Z,1.98
2023-01-25T10:05:35.019Z,1.92
2023-01-25T10:08:30.354Z,1.88
2023-01-25T10:11:27.860Z,2.00
2023-01-25T10:14:17.460Z,1.84
2023-01-25T10:17:13.363Z,1.80
2023-01-25T10:20:16.175Z,1.88
2023-01-25T10:23:09.448Z,1.96
2023-01-25T10:26:20.653Z,1.93
2023-01-25T10:29:27.902Z,2.06
2023-01-25T10:32:24.920Z,2.18
2023-01-25T10:35:34.343Z,2.09
2023-01-25T10:38:45.717Z,2.44
2023-01-25T10:41:41.202Z,2.09
2023-01-25T10:44:29.203Z,1.99
2023-01-25T10:47:26.288Z,2.07
2023-01-25T10:50:38.936Z,2.07
2023-01-25T10:53:39.533Z,2.07
2023-01-25T10:56:27.835Z,2.10
2023-01-25T10:59:20.789Z,2.22
2023-01-25T11:02:35.996Z,2.17
2023-01-25T11:05:33.760Z,2.24
2023-01-25T11:08:27.056Z,2.33
2023-01-25T11:11:27.778Z,2.32
2023-01-25T11:14:18.535Z,2.18
2023-01-25T11:17:06.667Z,2.26
2023-01-25T11:20:21.440Z,2.20
2023-01-25T11:23:26.746Z,2.24
2023-01-25T11:26:18.004Z,2.15
2023-01-25T11:29:24.291Z,2.12
2023-01-25T11:32:25.242Z,2.19
2023-01-25T11:35:15.005Z,2.34
2023-01-25T11:38:18.324Z,2.26
2023-01-25T11:41:24.050Z,2.31
2023-01-25T11:44:23.341Z,2.24
2023-01-25T11:47:13.346Z,2.20
2023-01-25T11:50:20.270Z,2.32
2023-01-25T11:53:16.411Z,2.54
2023-01-25T11:56:29.650Z,2.37
2023-01-25T11:59:52.126Z,2.35
2023-01-25T12:02:54.273Z,2.35
2023-01-25T12:06:25.099Z,2.35
2023-01-25T12:09:35.053Z,2.36
2023-01-25T12:12:28.005Z,2.29
2023-01-25T12:15:15.008Z,2.29
2023-01-25T12:18:15.905Z,2.22
2023-01-25T12:21:30.170Z,2.16
2023-01-25T12:24:41.438Z,2.25
2023-01-25T12:27:42.937Z,2.29
2023-01-25T12:30:50.447Z,2.25
2023-01-25T12:34:03.720Z,2.25
2023-01-25T12:36:51.685Z,2.26
2023-01-25T12:39:44.675Z,2.32
2023-01-25T12:42:47.802Z,2.40
2023-01-25T12:45:38.275Z,2.55
2023-01-25T12:48:36.833Z,2.51
2023-01-25T12:51:28.265Z,2.11
2023-01-25T12:54:36.425Z,2.50
2023-01-25T12:57:34.136Z,2.57
2023-01-25T13:00:57.705Z,2.50
2023-01-25T13:03:54.977Z,2.46
2023-01-25T13:07:10.063Z,2.38
2023-01-25T13:10:03.053Z,2.28
2023-01-25T13:12:55.413Z,2.13
2023-01-25T13:15:44.677Z,2.00
2023-01-25T13:18:32.709Z,2.12
2023-01-25T13:21:39.429Z,2.26
2023-01-25T13:24:34.835Z,2.30
2023-01-25T13:27:28.103Z,2.50
2023-01-25T13:30:31.566Z,2.45
2023-01-25T13:33:34.412Z,2.62
2023-01-25T13:36:40.332Z,2.59
2023-01-25T13:39:27.335Z,2.55
2023-01-25T13:42:20.231Z,2.64
2023-01-25T13:45:18.873Z,2.66
2023-01-25T13:48:13.357Z,2.67
2023-01-25T13:51:09.510Z,2.72
2023-01-25T13:54:00.313Z,2.66
2023-01-25T13:56:47.521Z,2.59
2023-01-25T13:59:34.857Z,2.82
2023-01-25T14:02:25.768Z,2.96
2023-01-25T14:05:21.510Z,2.56
2023-01-25T14:08:10.687Z,2.55
2023-01-25T14:10:58.304Z,2.53
2023-01-25T14:14:17.458Z,2.60
2023-01-25T14:17:21.018Z,2.78
2023-01-25T14:20:19.108Z,2.48
2023-01-25T14:23:06.167Z,2.45
2023-01-25T14:25:55.528Z,2.49
2023-01-25T14:28:58.971Z,2.32
2023-01-25T14:31:51.893Z,2.32
2023-01-25T14:34:39.019Z,2.18
2023-01-25T14:37:26.122Z,2.02
2023-01-25T14:40:13.640Z,1.99
2023-01-25T14:43:01.177Z,2.10
2023-01-25T14:45:48.483Z,2.34
2023-01-25T14:48:41.538Z,2.36
2023-01-25T14:51:30.589Z,2.26
2023-01-25T14:54:24.609Z,2.15
2023-01-25T14:57:41.949Z,2.14
2023-01-25T15:00:34.587Z,2.10
2023-01-25T15:03:26.850Z,1.92
2023-01-25T15:06:14.075Z,1.84
2023-01-25T15:09:01.159Z,1.81
2023-01-25T15:11:59.601Z,1.78
2023-01-25T15:14:51.864Z,2.09
2023-01-25T15:17:47.413Z,2.16
2023-01-25T15:20:41.717Z,2.09
2023-01-25T15:23:30.068Z,2.10
2023-01-25T15:26:32.032Z,2.00
2023-01-25T15:29:22.310Z,2.05
2023-01-25T15:32:17.889Z,2.11
2023-01-25T15:35:07.195Z,2.01
2023-01-25T15:37:54.324Z,1.96
2023-01-25T15:40:43.357Z,1.99
2023-01-25T15:43:30.459Z,1.80
2023-01-25T15:46:17.488Z,1.98
2023-01-25T15:49:06.857Z,1.91
2023-01-25T15:51:54.903Z,1.80
2023-01-25T15:54:48.620Z,1.83
2023-01-25T15:57:39.067Z,1.65
2023-01-25T16:00:26.396Z,1.71
2023-01-25T16:03:13.961Z,1.71
2023-01-25T16:06:06.103Z,1.69
2023-01-25T16:08:53.212Z,1.75
2023-01-25T16:11:40.296Z,1.69
2023-01-25T16:14:30.396Z,1.51
2023-01-25T16:17:24.862Z,1.81
2023-01-25T16:20:19.235Z,1.88
2023-01-25T16:23:06.654Z,1.63
2023-01-25T16:25:54.144Z,1.59
2023-01-25T16:28:41.656Z,1.59
2023-01-25T16:31:33.492Z,1.67
2023-01-25T16:34:22.385Z,1.85
2023-01-25T16:37:17.567Z,1.68
2023-01-25T16:40:05.137Z,1.58
2023-01-25T16:42:52.812Z,1.51
2023-01-25T16:45:41.614Z,1.48
2023-01-25T16:48:30.437Z,1.48
2023-01-25T16:51:19.815Z,1.63
2023-01-25T16:54:07.096Z,1.51
2023-01-25T16:56:55.705Z,1.52
2023-01-25T16:59:44.167Z,1.44
2023-01-25T17:02:31.632Z,1.51
2023-01-25T17:05:19.189Z,1.65
2023-01-25T17:08:06.530Z,1.76
2023-01-25T17:10:57.703Z,1.61
2023-01-25T17:13:52.442Z,1.80
2023-01-25T17:16:40.196Z,1.58
2023-01-25T17:19:29.236Z,1.38
2023-01-25T17:22:17.052Z,1.31
2023-01-25T17:25:06.036Z,1.42
2023-01-25T17:27:53.636Z,1.38
2023-01-25T17:30:45.356Z,1.45
2023-01-25T17:33:33.515Z,1.42
2023-01-25T17:36:21.654Z,1.39
2023-01-25T17:39:09.598Z,1.32
2023-01-25T17:41:57.926Z,1.52
2023-01-25T17:44:45.990Z,1.47
2023-01-25T17:47:36.050Z,1.37
2023-01-25T17:50:24.018Z,1.44
2023-01-25T17:53:11.923Z,1.41
2023-01-25T17:56:04.176Z,1.51
2023-01-25T17:58:52.667Z,1.39
2023-01-25T18:01:45.490Z,1.45
2023-01-25T18:04:36.497Z,1.37
2023-01-25T18:07:27.532Z,1.34
2023-01-25T18:10:15.796Z,1.40
2023-01-25T18:13:05.948Z,1.43
2023-01-25T18:15:56.887Z,1.31
2023-01-25T18:18:47.433Z,1.29
2023-01-25T18:21:44.148Z,1.28
2023-01-25T18:24:33.513Z,1.24
2023-01-25T18:27:27.592Z,1.26
2023-01-25T18:30:35.550Z,1.24
2023-01-25T18:33:23.922Z,1.06
2023-01-25T18:36:16.154Z,1.01
2023-01-25T18:39:07.526Z,1.15
2023-01-25T18:41:55.527Z,1.11
2023-01-25T18:44:45.987Z,1.09
2023-01-25T18:47:34.277Z,1.05
2023-01-25T18:50:21.982Z,0.93
2023-01-25T18:53:10.880Z,1.06
2023-01-25T18:56:08.614Z,1.06
2023-01-25T18:58:59.546Z,1.02
2023-01-25T19:01:48.511Z,1.00
2023-01-25T19:04:36.840Z,0.94
2023-01-25T19:07:25.063Z,0.93
2023-01-25T19:10:13.223Z,0.96
2023-01-25T19:13:01.993Z,1.08
2023-01-25T19:15:50.318Z,1.11
2023-01-25T19:18:42.781Z,0.90
2023-01-25T19:21:32.328Z,1.09
2023-01-25T19:24:21.559Z,1.00
2023-01-25T19:27:11.163Z,0.88
2023-01-25T19:29:59.524Z,0.95
2023-01-25T19:32:48.107Z,0.86
2023-01-25T19:35:36.441Z,0.91
2023-01-25T19:38:24.699Z,0.66
2023-01-25T19:41:16.168Z,0.85
2023-01-25T19:44:06.959Z,1.03
2023-01-25T19:46:55.172Z,1.04
2023-01-25T19:49:43.343Z,0.96
2023-01-25T19:52:31.733Z,0.92
2023-01-25T19:55:19.430Z,0.82
2023-01-25T19:58:09.012Z,0.98
2023-01-25T20:00:57.041Z,0.94
2023-01-25T20:03:45.869Z,1.10
2023-01-25T20:06:34.067Z,1.02
2023-01-25T20:09:28.444Z,1.04
2023-01-25T20:12:16.558Z,0.91
2023-01-25T20:15:05.758Z,0.83
2023-01-25T20:18:01.351Z,0.83
2023-01-25T20:21:00.431Z,0.65
2023-01-25T20:23:57.418Z,0.62
2023-01-25T20:26:45.864Z,0.70
2023-01-25T20:29:33.816Z,0.67
2023-01-25T20:32:32.240Z,0.65
2023-01-25T20:35:21.001Z,0.47
2023-01-25T20:38:09.145Z,0.60
2023-01-25T20:41:03.394Z,0.67
2023-01-25T20:43:58.049Z,0.59
2023-01-25T20:46:47.676Z,0.63
2023-01-25T20:49:40.215Z,0.58
2023-01-25T20:52:28.684Z,0.47
2023-01-25T20:55:18.186Z,0.46
2023-01-25T20:58:07.580Z,0.46
2023-01-25T21:00:56.665Z,0.48
2023-01-25T21:03:44.802Z,0.47
2023-01-25T21:06:34.847Z,0.42
2023-01-25T21:09:23.991Z,0.46
2023-01-25T21:12:12.231Z,0.53
2023-01-25T21:15:01.084Z,0.49
2023-01-25T21:17:54.510Z,0.46
2023-01-25T21:20:42.550Z,0.40
2023-01-25T21:23:30.728Z,0.37
2023-01-25T21:26:23.971Z,0.35
2023-01-25T21:29:11.742Z,0.34
2023-01-25T21:31:59.990Z,0.29
2023-01-25T21:34:48.249Z,0.33
2023-01-25T21:37:39.332Z,0.37
2023-01-25T21:40:29.279Z,0.20
2023-01-25T21:43:19.323Z,0.27
2023-01-25T21:46:13.917Z,0.32
2023-01-25T21:49:21.627Z,0.26
2023-01-25T21:52:10.591Z,0.21
2023-01-25T21:54:58.529Z,0.23
2023-01-25T21:57:47.699Z,0.23
2023-01-25T22:00:36.270Z,0.25
2023-01-25T22:03:24.576Z,0.16
2023-01-25T22:06:11.691Z,0.21
2023-01-25T22:08:58.842Z,0.22
2023-01-25T22:11:46.470Z,0.30
2023-01-25T22:14:33.708Z,0.18
2023-01-25T22:17:22.658Z,0.32
2023-01-25T22:20:10.824Z,0.29
2023-01-25T22:22:58.124Z,0.31
2023-01-25T22:25:45.211Z,0.25
2023-01-25T22:28:53.831Z,0.32
2023-01-25T22:31:41.650Z,0.17
2023-01-25T22:34:28.710Z,0.20
2023-01-25T22:37:15.855Z,0.21
2023-01-25T22:40:03.021Z,0.31
2023-01-25T22:42:50.105Z,0.22
2023-01-25T22:45:37.204Z,0.19
2023-01-25T22:48:24.410Z,0.10
2023-01-25T22:51:17.082Z,0.22
2023-01-25T22:54:04.380Z,0.09
2023-01-25T22:56:51.795Z,0.16
2023-01-25T22:59:39.235Z,0.20
2023-01-25T23:02:26.804Z,0.28
2023-01-25T23:05:14.025Z,0.21
2023-01-25T23:08:01.178Z,0.11
2023-01-25T23:10:48.338Z,0.17
2023-01-25T23:13:37.176Z,0.04
2023-01-25T23:16:24.239Z,0.16
2023-01-25T23:19:11.327Z,0.15
2023-01-25T23:21:58.391Z,0.06
2023-01-25T23:24:45.461Z,0.12
2023-01-25T23:27:32.507Z,0.20
2023-01-25T23:30:19.693Z,-0.03
2023-01-25T23:33:06.749Z,0.02
2023-01-25T23:35:53.873Z,-0.14
2023-01-25T23:38:42.371Z,-0.03
2023-01-25T23:41:30.647Z,-0.04
2023-01-25T23:44:17.750Z,-0.08
2023-01-25T23:47:04.894Z,0.00
2023-01-25T23:49:52.002Z,-0.14
2023-01-25T23:52:39.037Z,-0.08
2023-01-25T23:55:26.175Z,-0.10
2023-01-25T23:58:13.227Z,-0.09
